Time;durP1;ratioP1;P1;durP2;ratioP2;P2;SDS_P1;SDS_P2;PMS_P1;PMS_P2;Temp;Humidity;BMP_temperature;BMP_pressure;BME280_temperature;BME280_humidity;BME280_pressure;Samples;Min_cycle;Max_cycle;Signal;HPM_P1;HPM_P2
2022/03/04 00:09:43;;;;;;;14.73;4.10;;;;;;;5.07;77.36;100676.00;714462;1174;113910;-78
2022/03/04 00:24:45;;;;;;;21.53;7.20;;;;;;;5.03;76.06;100684.05;714450;1174;114914;-78
2022/03/04 00:39:47;;;;;;;14.57;6.00;;;;;;;5.00;76.56;100682.47;713557;1175;114509;-76
2022/03/04 00:54:49;;;;;;;7.73;3.23;;;;;;;4.99;77.08;100683.42;713521;1174;114555;-77
2022/03/04 01:09:51;;;;;;;15.60;5.45;;;;;;;4.96;76.65;100675.77;713681;1174;113722;-76
2022/03/04 01:24:53;;;;;;;9.87;4.23;;;;;;;4.94;77.04;100698.45;713856;1167;114037;-77
2022/03/04 01:39:56;;;;;;;10.33;3.57;;;;;;;4.79;77.04;100688.00;713820;1176;114604;-78
2022/03/04 01:54:58;;;;;;;6.10;2.70;;;;;;;4.75;76.76;100683.05;713426;1174;113900;-75
2022/03/04 02:10:00;;;;;;;6.05;4.08;;;;;;;4.70;76.60;100679.88;713285;1174;113719;-78
2022/03/04 02:25:05;;;;;;;6.70;3.03;;;;;;;4.69;77.30;100686.84;713408;1174;114349;-77
2022/03/04 02:40:11;;;;;;;9.70;3.73;;;;;;;4.72;76.91;100680.64;713376;1174;114860;-77
2022/03/04 02:55:14;;;;;;;31.93;10.23;;;;;;;4.68;76.94;100692.97;713525;1177;114817;-78
2022/03/04 03:10:16;;;;;;;14.03;5.23;;;;;;;4.67;77.69;100691.28;713930;1174;114102;-77
2022/03/04 03:25:18;;;;;;;17.70;5.60;;;;;;;4.63;77.13;100689.78;713310;1174;115152;-76
2022/03/04 03:40:20;;;;;;;7.77;4.13;;;;;;;4.62;78.28;100704.55;713874;1177;113973;-72
2022/03/04 03:55:22;;;;;;;14.80;6.05;;;;;;;4.55;78.87;100713.60;713566;1174;114452;-72
2022/03/04 04:10:24;;;;;;;12.93;5.35;;;;;;;4.50;79.15;100716.47;713748;1174;114406;-73
2022/03/04 04:25:28;;;;;;;19.00;8.40;;;;;;;4.47;79.87;100718.39;713951;1174;115046;-73
2022/03/04 04:40:31;;;;;;;60.90;16.80;;;;;;;4.47;80.85;100716.66;714261;1174;114592;-78
2022/03/04 04:55:33;;;;;;;15.20;8.13;;;;;;;4.55;81.06;100725.77;714318;1176;115575;-79
2022/03/04 05:10:35;;;;;;;16.20;7.25;;;;;;;4.61;79.79;100731.45;713569;1174;113902;-79
2022/03/04 05:25:37;;;;;;;75.95;31.65;;;;;;;4.59;80.35;100737.66;713823;1174;114286;-80
2022/03/04 05:40:39;;;;;;;32.75;15.18;;;;;;;4.63;81.28;100741.77;714084;1174;114200;-79
2022/03/04 05:55:41;;;;;;;28.33;12.63;;;;;;;4.63;81.13;100762.55;713457;1174;115272;-77
2022/03/04 06:10:44;;;;;;;33.95;16.05;;;;;;;4.70;80.79;100782.09;713236;1175;114046;-77
2022/03/04 06:25:46;;;;;;;55.05;23.65;;;;;;;4.74;81.65;100795.74;713378;1176;115556;-78
2022/03/04 06:40:50;;;;;;;83.03;36.25;;;;;;;4.78;82.29;100805.89;713777;1174;115612;-74
2022/03/04 06:55:52;;;;;;;87.43;35.07;;;;;;;4.92;82.73;100825.09;713674;1177;114085;-74
2022/03/04 07:10:54;;;;;;;55.40;22.65;;;;;;;5.05;82.33;100833.05;713347;1174;115647;-75
2022/03/04 07:25:56;;;;;;;29.18;9.43;;;;;;;5.06;82.11;100845.13;713767;1175;114898;-75
2022/03/04 07:40:58;;;;;;;37.75;12.45;;;;;;;4.95;83.11;100863.94;713312;1177;115503;-78
2022/03/04 07:56:00;;;;;;;46.40;17.27;;;;;;;5.28;82.73;100870.78;713757;1174;115411;-78
2022/03/04 08:11:02;;;;;;;38.55;14.95;;;;;;;5.27;82.10;100889.91;714822;1175;115526;-80
2022/03/04 08:26:05;;;;;;;24.25;9.00;;;;;;;5.60;81.71;100901.94;717490;1174;114740;-76
2022/03/04 08:41:08;;;;;;;34.70;14.70;;;;;;;5.88;81.25;100902.94;714875;1174;114804;-76
2022/03/04 08:56:10;;;;;;;25.68;10.88;;;;;;;6.10;81.12;100918.18;713775;1176;114320;-75
2022/03/04 09:11:12;;;;;;;27.00;13.15;;;;;;;6.50;80.23;100934.84;713897;1174;115522;-74
2022/03/04 09:26:14;;;;;;;33.13;13.83;;;;;;;6.81;79.09;100939.98;713954;1175;115488;-76
2022/03/04 09:41:18;;;;;;;78.35;25.25;;;;;;;7.29;77.92;100944.81;713987;1174;114756;-74
2022/03/04 09:56:21;;;;;;;19.58;11.28;;;;;;;7.76;76.54;100955.72;714074;1175;114993;-75
2022/03/04 10:11:36;;;;;;;27.83;13.20;;;;;;;7.75;75.32;100970.56;713963;1174;114998;-75
2022/03/04 10:26:40;;;;;;;62.45;24.20;;;;;;;7.79;73.21;100972.03;717857;1174;115679;-75
2022/03/04 10:41:49;;;;;;;98.70;37.08;;;;;;;7.98;73.01;100971.67;719050;1174;115057;-75
2022/03/04 10:56:55;;;;;;;37.48;18.25;;;;;;;8.05;71.54;100972.11;714399;1177;114216;-76
2022/03/04 11:11:59;;;;;;;43.43;18.70;;;;;;;8.43;70.76;100973.92;714049;1174;115536;-76
2022/03/04 11:27:06;;;;;;;18.25;8.48;;;;;;;8.86;69.55;100974.55;713541;1175;114638;-76
2022/03/04 11:42:09;;;;;;;43.43;20.20;;;;;;;8.96;69.69;100968.55;718236;1174;115335;-76
2022/03/04 11:57:28;;;;;;;25.63;10.60;;;;;;;9.21;68.25;100966.81;720093;1177;115508;-75
2022/03/04 12:12:38;;;;;;;29.08;10.20;;;;;;;9.24;66.00;100981.47;713731;1175;114875;-75
2022/03/04 12:27:42;;;;;;;17.35;7.23;;;;;;;9.46;65.81;100976.36;713709;1174;114729;-75
2022/03/04 12:42:52;;;;;;;10.47;5.27;;;;;;;8.83;64.58;100965.95;713859;1177;115400;-76
2022/03/04 12:58:00;;;;;;;29.55;11.28;;;;;;;11.77;62.71;100956.91;713891;1174;114409;-80
2022/03/04 13:13:02;;;;;;;23.45;9.60;;;;;;;12.99;60.35;100965.03;714188;1174;115727;-78
2022/03/04 13:28:05;;;;;;;16.73;6.47;;;;;;;12.69;58.32;100962.45;714703;1174;115737;-79
2022/03/04 13:43:08;;;;;;;9.08;4.38;;;;;;;12.12;55.90;100966.30;713783;1167;114261;-78
2022/03/04 13:58:19;;;;;;;21.03;7.73;;;;;;;10.45;57.08;100961.20;713932;1177;114895;-77
2022/03/04 14:13:23;;;;;;;35.53;13.15;;;;;;;11.39;55.72;100981.88;715930;1174;114869;-76
2022/03/04 14:28:33;;;;;;;33.83;12.85;;;;;;;11.57;55.17;100997.94;717866;1174;114887;-77
2022/03/04 14:43:36;;;;;;;28.88;11.85;;;;;;;13.57;53.65;101000.41;714368;1176;115127;-76
2022/03/04 14:58:38;;;;;;;31.50;13.80;;;;;;;9.41;54.57;101014.28;714123;1176;114404;-77
2022/03/04 15:13:41;;;;;;;25.80;12.83;;;;;;;7.99;58.05;101019.53;714042;1174;114965;-76
2022/03/04 15:28:44;;;;;;;25.85;11.25;;;;;;;7.57;58.90;101014.36;714351;1174;115295;-74
2022/03/04 15:43:48;;;;;;;53.90;25.93;;;;;;;7.57;60.16;101022.20;713861;1174;114070;-75
2022/03/04 15:58:51;;;;;;;42.40;16.50;;;;;;;7.85;60.19;101035.27;714176;1174;115018;-76
2022/03/04 16:13:57;;;;;;;48.35;18.80;;;;;;;7.32;61.07;101034.21;713746;1175;114735;-77
2022/03/04 16:29:01;;;;;;;28.65;12.15;;;;;;;7.01;61.29;101048.30;714372;1175;115761;-74
2022/03/04 16:44:04;;;;;;;46.90;16.75;;;;;;;6.87;62.17;101056.13;714221;1174;114728;-74
2022/03/04 16:59:07;;;;;;;67.80;25.23;;;;;;;6.77;62.87;101051.46;713984;1174;115348;-75
2022/03/04 17:14:30;;;;;;;67.90;25.65;;;;;;;6.44;63.59;101059.48;714494;1174;115491;-77
2022/03/04 17:29:32;;;;;;;45.80;20.70;;;;;;;6.09;64.57;101044.97;714229;1174;114522;-78
2022/03/04 17:44:35;;;;;;;69.33;24.40;;;;;;;5.72;64.41;101060.03;715691;1176;114450;-80
2022/03/04 17:59:38;;;;;;;113.43;33.73;;;;;;;5.43;64.79;101061.63;715182;1175;115425;-79
2022/03/04 18:14:41;;;;;;;48.70;21.13;;;;;;;5.14;65.82;101058.82;715827;1177;114744;-80
2022/03/04 18:29:47;;;;;;;166.95;51.30;;;;;;;4.86;67.14;101082.81;715764;1175;114498;-79
2022/03/04 18:45:39;;;;;;;37.48;14.80;;;;;;;4.80;66.12;101099.57;715498;1174;114253;-80
2022/03/04 19:00:13;;;;;;;55.38;21.15;;;;;;;4.69;67.14;101094.92;715076;1174;115377;-80
2022/03/04 19:15:17;;;;;;;50.23;15.15;;;;;;;4.55;68.66;101093.00;714804;1174;114980;-81
2022/03/04 19:30:22;;;;;;;102.60;33.60;;;;;;;4.33;67.83;101101.88;715114;1174;114653;-81
2022/03/04 19:45:25;;;;;;;71.38;29.60;;;;;;;4.06;67.83;101114.42;715211;1174;114307;-80
2022/03/04 20:00:28;;;;;;;45.90;16.88;;;;;;;4.04;69.27;101112.81;715287;1174;114169;-77
2022/03/04 20:15:31;;;;;;;66.70;24.20;;;;;;;4.10;70.39;101115.95;714010;1175;115247;-75
2022/03/04 20:30:34;;;;;;;102.30;37.60;;;;;;;4.11;69.78;101116.81;713680;1174;115696;-74
2022/03/04 20:45:37;;;;;;;35.23;15.70;;;;;;;4.11;69.90;101125.44;715445;1177;115067;-80
2022/03/04 21:00:40;;;;;;;41.43;15.07;;;;;;;4.12;71.15;101142.70;714967;1174;115720;-75
2022/03/04 21:15:43;;;;;;;42.57;14.07;;;;;;;4.15;70.74;101144.31;714272;1174;114970;-76
2022/03/04 21:30:46;;;;;;;75.80;22.20;;;;;;;4.13;69.90;101149.59;714533;1176;115126;-75
2022/03/04 21:45:48;;;;;;;63.40;20.08;;;;;;;4.02;70.64;101151.84;718589;1174;114200;-75
2022/03/04 22:00:50;;;;;;;103.60;26.53;;;;;;;4.00;70.52;101151.08;715107;1174;114746;-76
2022/03/04 22:15:53;;;;;;;55.60;17.30;;;;;;;3.98;70.44;101153.72;714199;1177;114909;-75
2022/03/04 22:30:55;;;;;;;44.80;14.63;;;;;;;4.05;71.16;101154.31;714326;1174;115386;-75
2022/03/04 22:45:58;;;;;;;31.85;11.83;;;;;;;4.07;71.21;101164.63;713778;1174;114454;-76
2022/03/04 23:01:00;;;;;;;37.65;13.88;;;;;;;3.98;70.51;101163.28;713570;1174;115157;-76
2022/03/04 23:16:02;;;;;;;45.78;18.25;;;;;;;3.91;69.80;101164.49;713763;1174;115010;-75
2022/03/04 23:31:06;;;;;;;47.93;14.28;;;;;;;3.85;70.58;101163.00;713617;1174;114998;-75
2022/03/04 23:46:10;;;;;;;59.23;17.88;;;;;;;3.72;70.49;101151.50;713730;1174;115761;-78
